Time;durP1;ratioP1;P1;durP2;ratioP2;P2;SDS_P1;SDS_P2;PMS_P1;PMS_P2;Temp;Humidity;BMP_temperature;BMP_pressure;BME280_temperature;BME280_humidity;BME280_pressure;Samples;Min_cycle;Max_cycle;Signal;HPM_P1;HPM_P2
2022/09/02 00:00:05;;;;;;;17.97;14.20;;;;;;;-141.28;100.00;48530.81;5073564;28;20720;-76
2022/09/02 00:02:33;;;;;;;20.83;14.10;;;;;;;-141.28;100.00;48552.41;5081933;28;20276;-77
2022/09/02 00:05:05;;;;;;;20.60;13.57;;;;;;;-141.28;100.00;48534.75;5077998;28;20201;-76
2022/09/02 00:07:33;;;;;;;19.80;13.37;;;;;;;-141.28;100.00;48458.22;5074106;28;20204;-76
2022/09/02 00:10:00;;;;;;;19.17;14.03;;;;;;;-141.28;100.00;48503.34;5090472;28;20219;-76
2022/09/02 00:12:27;;;;;;;23.67;15.37;;;;;;;-141.28;100.00;48505.31;5089491;28;20196;-78
2022/09/02 00:14:56;;;;;;;27.33;14.87;;;;;;;-141.28;100.00;48501.41;5110018;28;20212;-77
2022/09/02 00:17:23;;;;;;;20.00;14.93;;;;;;;-141.28;100.00;48497.47;5075302;28;20201;-77
2022/09/02 00:19:50;;;;;;;21.07;15.17;;;;;;;-141.28;100.00;48487.66;5073278;28;20198;-77
2022/09/02 00:22:19;;;;;;;26.60;16.13;;;;;;;-141.28;100.00;48489.63;5083684;28;20647;-76
2022/09/02 00:24:48;;;;;;;22.97;15.77;;;;;;;-141.28;100.00;48481.78;5094760;28;20203;-77
2022/09/02 00:27:15;;;;;;;20.90;15.33;;;;;;;-141.28;100.00;48434.69;5080153;28;20199;-76
2022/09/02 00:29:44;;;;;;;20.87;15.27;;;;;;;-141.28;100.00;48462.16;5074296;28;20196;-78
2022/09/02 00:32:13;;;;;;;22.67;15.03;;;;;;;-141.28;100.00;48458.22;5089027;28;20200;-76
2022/09/02 00:34:40;;;;;;;17.53;15.07;;;;;;;-141.28;100.00;48462.16;5089487;28;20204;-75
2022/09/02 00:37:07;;;;;;;19.40;15.80;;;;;;;-141.28;100.00;48464.13;5074075;28;20199;-77
2022/09/02 00:39:36;;;;;;;19.83;14.53;;;;;;;-141.28;100.00;48479.81;5073845;28;20227;-78
2022/09/02 00:42:05;;;;;;;21.13;14.60;;;;;;;-141.28;100.00;48497.47;5106264;28;20196;-76
2022/09/02 00:44:33;;;;;;;21.07;15.20;;;;;;;-141.28;100.00;48485.69;5072987;28;20208;-76
2022/09/02 00:47:01;;;;;;;21.90;15.00;;;;;;;-141.28;100.00;48497.47;5072869;28;20219;-76
2022/09/02 00:49:31;;;;;;;24.73;15.73;;;;;;;-141.28;100.00;48517.09;5084767;28;20200;-76
2022/09/02 00:52:04;;;;;;;22.17;14.93;;;;;;;-141.28;100.00;48544.56;5088482;28;20207;-76
2022/09/02 00:54:35;;;;;;;23.73;15.83;;;;;;;-141.28;100.00;48548.47;5073220;28;20200;-77
2022/09/02 00:57:08;;;;;;;19.00;15.93;;;;;;;-141.28;100.00;48554.34;5090529;28;20198;-78
2022/09/02 00:59:46;;;;;;;20.93;15.97;;;;;;;-141.28;100.00;48536.69;5088534;28;20238;-77
2022/09/02 01:02:15;;;;;;;19.87;15.67;;;;;;;-141.28;100.00;48501.41;5082430;28;20199;-76
2022/09/02 01:04:45;;;;;;;24.33;15.77;;;;;;;-141.28;100.00;48528.84;5085987;28;20685;-77
2022/09/02 01:07:14;;;;;;;20.80;15.63;;;;;;;-141.28;100.00;48528.84;5104911;28;20276;-78
2022/09/02 01:09:42;;;;;;;23.47;16.37;;;;;;;-141.28;100.00;48524.94;5089590;28;20202;-75
2022/09/02 01:12:12;;;;;;;21.80;15.20;;;;;;;-141.28;100.00;48515.13;5076805;28;20204;-77
2022/09/02 01:14:41;;;;;;;20.00;16.10;;;;;;;-141.28;100.00;48515.13;5082408;28;20669;-77
2022/09/02 01:17:10;;;;;;;21.30;17.23;;;;;;;-141.28;100.00;48519.06;5075764;28;20192;-77
2022/09/02 01:19:42;;;;;;;21.07;16.10;;;;;;;-141.28;100.00;48522.97;5072383;28;20235;-76
2022/09/02 01:22:18;;;;;;;30.83;16.93;;;;;;;-141.28;100.00;48554.34;5086058;28;20258;-76
2022/09/02 01:24:46;;;;;;;22.60;16.40;;;;;;;-141.28;100.00;48513.16;5072476;28;20192;-76
2022/09/02 01:27:16;;;;;;;24.70;16.43;;;;;;;-141.28;100.00;48530.81;5071816;28;20196;-77
2022/09/02 01:29:44;;;;;;;22.57;15.57;;;;;;;-141.28;100.00;48513.16;5086814;28;20310;-75
2022/09/02 01:32:12;;;;;;;19.20;15.00;;;;;;;-141.28;100.00;48524.94;5102002;28;20247;-76
2022/09/02 01:34:41;;;;;;;20.07;17.17;;;;;;;-141.28;100.00;48530.81;5078840;28;20647;-77
2022/09/02 01:37:08;;;;;;;20.13;16.47;;;;;;;-141.28;100.00;48513.16;5076490;28;20199;-76
2022/09/02 01:39:37;;;;;;;18.20;14.87;;;;;;;-141.28;100.00;48548.47;5103546;28;20253;-78
2022/09/02 01:42:05;;;;;;;19.83;15.27;;;;;;;-141.28;100.00;48556.31;5106666;28;20571;-77
2022/09/02 01:44:34;;;;;;;16.67;14.23;;;;;;;-141.28;100.00;48579.88;5079967;28;20200;-75
2022/09/02 01:47:01;;;;;;;16.77;14.90;;;;;;;-141.28;100.00;48599.47;5071913;28;20203;-76
2022/09/02 01:49:28;;;;;;;23.10;14.73;;;;;;;-141.28;100.00;48630.88;5071998;28;20196;-75
2022/09/02 01:51:56;;;;;;;22.07;13.63;;;;;;;-141.28;100.00;48662.25;5082904;28;20195;-76
2022/09/02 01:54:23;;;;;;;16.87;14.23;;;;;;;-141.28;100.00;48685.81;5099456;28;20554;-77
2022/09/02 01:56:51;;;;;;;19.50;14.00;;;;;;;-141.28;100.00;48713.25;5073709;28;20207;-75
2022/09/02 01:59:19;;;;;;;20.23;14.30;;;;;;;-141.28;100.00;48697.56;5071785;28;20244;-77
2022/09/02 02:01:47;;;;;;;19.37;14.13;;;;;;;-141.28;100.00;48685.81;5072212;28;20539;-78
2022/09/02 02:04:17;;;;;;;22.00;14.47;;;;;;;-141.28;100.00;48717.19;5072646;28;20196;-78
2022/09/02 02:06:48;;;;;;;24.13;14.47;;;;;;;-141.28;100.00;48717.19;5085133;28;20627;-77
2022/09/02 02:09:16;;;;;;;19.67;14.20;;;;;;;-141.28;100.00;48713.25;5072282;28;20204;-78
2022/09/02 02:11:44;;;;;;;14.10;12.50;;;;;;;-141.28;100.00;48748.56;5080687;28;20195;-76
2022/09/02 02:14:13;;;;;;;14.00;11.00;;;;;;;-141.28;100.00;48791.75;5091981;28;20222;-77
2022/09/02 02:16:40;;;;;;;15.20;11.07;;;;;;;-141.28;100.00;48772.13;5091735;28;20191;-77
2022/09/02 02:19:08;;;;;;;11.17;10.07;;;;;;;-141.28;100.00;48795.66;5091184;28;20230;-75
2022/09/02 02:21:36;;;;;;;15.80;8.57;;;;;;;-141.28;100.00;48819.22;5078612;28;20261;-77
2022/09/02 02:24:05;;;;;;;11.50;8.77;;;;;;;-141.28;100.00;48858.44;5104768;28;20199;-76
2022/09/02 02:26:32;;;;;;;10.60;7.90;;;;;;;-141.28;100.00;48948.69;5103685;28;20191;-76
2022/09/02 02:28:59;;;;;;;11.07;8.07;;;;;;;-141.28;100.00;48929.06;5094709;28;20214;-76
2022/09/02 02:31:27;;;;;;;9.87;8.00;;;;;;;-141.28;100.00;48956.53;5091307;28;20194;-76
2022/09/02 02:33:57;;;;;;;10.20;8.47;;;;;;;-141.28;100.00;48976.16;5084499;28;20658;-76
2022/09/02 02:36:25;;;;;;;9.10;7.33;;;;;;;-141.28;100.00;48987.94;5090834;28;20191;-75
2022/09/02 02:38:52;;;;;;;8.07;7.20;;;;;;;-141.28;100.00;48989.91;5103813;28;20235;-77
2022/09/02 02:41:20;;;;;;;9.33;7.13;;;;;;;-141.28;100.00;48999.72;5093754;28;20191;-78
2022/09/02 02:43:49;;;;;;;8.90;7.00;;;;;;;-141.28;100.00;48964.38;5111173;28;20611;-77
2022/09/02 02:46:17;;;;;;;12.57;6.20;;;;;;;-141.28;100.00;49007.56;5110757;28;20191;-76
2022/09/02 02:48:46;;;;;;;6.80;6.10;;;;;;;-141.28;100.00;49001.66;5111383;28;20676;-75
2022/09/02 02:51:13;;;;;;;7.90;6.27;;;;;;;-141.28;100.00;48964.38;5092339;28;20202;-76
2022/09/02 02:53:41;;;;;;;7.33;6.53;;;;;;;-141.28;100.00;48948.69;5102378;28;20203;-75
2022/09/02 02:56:08;;;;;;;7.03;6.43;;;;;;;-141.28;100.00;48934.97;5097268;28;20202;-75
2022/09/02 02:58:35;;;;;;;7.13;6.40;;;;;;;-141.28;100.00;48901.59;5098792;28;20218;-76
2022/09/02 03:01:02;;;;;;;7.57;6.43;;;;;;;-141.28;100.00;48866.28;5088861;28;20207;-76
2022/09/02 03:03:30;;;;;;;11.40;7.03;;;;;;;-141.28;100.00;48827.06;5075285;28;20207;-76
2022/09/02 03:05:58;;;;;;;7.93;6.57;;;;;;;-141.28;100.00;48827.06;5114258;28;20646;-78
2022/09/02 03:08:26;;;;;;;7.50;6.23;;;;;;;-141.28;100.00;48807.44;5113932;28;20199;-77
2022/09/02 03:10:55;;;;;;;8.43;6.93;;;;;;;-141.28;100.00;48803.50;5088799;28;20191;-75
2022/09/02 03:13:23;;;;;;;8.07;6.40;;;;;;;-141.28;100.00;48787.81;5114106;28;20206;-78
2022/09/02 03:15:51;;;;;;;7.53;6.83;;;;;;;-141.28;100.00;48791.75;5099146;28;20196;-78
2022/09/02 03:18:19;;;;;;;7.87;7.07;;;;;;;-141.28;100.00;48717.19;5103882;28;20206;-75
2022/09/02 03:20:46;;;;;;;9.47;7.07;;;;;;;-141.28;100.00;48756.44;5114026;28;20641;-77
2022/09/02 03:23:17;;;;;;;7.80;7.00;;;;;;;-141.28;100.00;48766.22;5114424;28;20541;-75
2022/09/02 03:25:45;;;;;;;8.10;6.80;;;;;;;-141.28;100.00;48785.84;5104741;28;20711;-76
2022/09/02 03:28:13;;;;;;;8.60;7.70;;;;;;;-141.28;100.00;48772.13;5093582;28;20191;-76
2022/09/02 03:30:45;;;;;;;8.67;7.73;;;;;;;-141.28;100.00;48756.44;5104347;28;20195;-78
2022/09/02 03:33:12;;;;;;;7.83;7.03;;;;;;;-141.28;100.00;48717.19;5109376;28;20282;-74
2022/09/02 03:35:41;;;;;;;7.80;7.00;;;;;;;-141.28;100.00;48744.66;5084392;28;20233;-74
2022/09/02 03:38:13;;;;;;;7.97;7.20;;;;;;;-141.28;100.00;48727.00;5076382;28;20208;-78
2022/09/02 03:40:43;;;;;;;11.23;7.27;;;;;;;-141.28;100.00;48730.91;5086321;28;20302;-76
2022/09/02 03:43:10;;;;;;;9.77;7.77;;;;;;;-141.28;100.00;48713.25;5080654;28;20261;-76
2022/09/02 03:45:40;;;;;;;8.80;7.90;;;;;;;-141.28;100.00;48713.25;5102450;28;20201;-77
2022/09/02 03:48:09;;;;;;;10.03;7.43;;;;;;;-141.28;100.00;48723.06;5097842;28;20239;-75
2022/09/02 03:50:40;;;;;;;17.97;8.30;;;;;;;-141.28;100.00;48725.03;5094608;28;20196;-76
2022/09/02 03:53:08;;;;;;;14.70;8.27;;;;;;;-141.28;100.00;48732.88;5117511;28;20206;-76
2022/09/02 03:55:36;;;;;;;14.30;8.63;;;;;;;-141.28;100.00;48728.97;5093733;28;20214;-78
2022/09/02 03:58:05;;;;;;;14.33;8.57;;;;;;;-141.28;100.00;48740.72;5085203;28;20191;-76
2022/09/02 04:00:32;;;;;;;13.13;8.33;;;;;;;-141.28;100.00;48750.53;5104727;28;20245;-77
2022/09/02 04:03:00;;;;;;;11.47;8.50;;;;;;;-141.28;100.00;48756.44;5082260;28;20258;-77
2022/09/02 04:05:29;;;;;;;12.87;8.40;;;;;;;-141.28;100.00;48811.34;5093846;28;20207;-76
2022/09/02 04:07:57;;;;;;;11.53;8.23;;;;;;;-141.28;100.00;48779.97;5093587;28;20207;-76
2022/09/02 04:10:25;;;;;;;11.47;8.20;;;;;;;-141.28;100.00;48783.91;5084813;28;20200;-75
2022/09/02 04:12:52;;;;;;;8.90;8.00;;;;;;;-141.28;100.00;48766.22;5078493;28;20200;-74
2022/09/02 04:15:24;;;;;;;11.67;8.70;;;;;;;-141.28;100.00;48768.19;5114283;28;20191;-78
2022/09/02 04:17:52;;;;;;;10.63;8.80;;;;;;;-141.28;100.00;48768.19;5113061;28;20209;-76
2022/09/02 04:20:19;;;;;;;9.17;8.27;;;;;;;-141.28;100.00;48756.44;5113604;28;20237;-76
2022/09/02 04:22:47;;;;;;;10.87;9.43;;;;;;;-141.28;100.00;48742.69;5113148;28;20197;-78
2022/09/02 04:25:14;;;;;;;11.27;9.57;;;;;;;-141.28;100.00;48732.88;5101759;28;20196;-77
2022/09/02 04:27:41;;;;;;;12.37;9.50;;;;;;;-141.28;100.00;48707.38;5105200;28;20267;-76
2022/09/02 04:30:09;;;;;;;12.37;9.33;;;;;;;-141.28;100.00;48674.03;5107893;28;20636;-75
2022/09/02 04:32:38;;;;;;;13.03;9.50;;;;;;;-141.28;100.00;48707.38;5104823;28;20191;-76
2022/09/02 04:35:06;;;;;;;14.17;9.80;;;;;;;-141.28;100.00;48697.56;5087097;28;20191;-75
2022/09/02 04:37:33;;;;;;;13.23;10.20;;;;;;;-141.28;100.00;48693.66;5100058;28;20540;-77
2022/09/02 04:40:01;;;;;;;11.03;8.87;;;;;;;-141.28;100.00;48709.34;5105917;28;20265;-76
2022/09/02 04:42:28;;;;;;;12.50;8.90;;;;;;;-141.28;100.00;48721.13;5096493;28;20206;-76
2022/09/02 04:44:56;;;;;;;11.73;9.03;;;;;;;-141.28;100.00;48740.72;5093176;28;20230;-76
2022/09/02 04:47:25;;;;;;;11.97;10.53;;;;;;;-141.28;100.00;48744.66;5085842;28;20278;-74
2022/09/02 04:49:57;;;;;;;13.23;9.90;;;;;;;-141.28;100.00;48776.03;5111218;28;20199;-76
2022/09/02 04:52:24;;;;;;;12.60;9.10;;;;;;;-141.28;100.00;48768.19;5112631;28;20624;-75
2022/09/02 04:54:51;;;;;;;11.33;9.43;;;;;;;-141.28;100.00;48766.22;5111332;28;20201;-74
2022/09/02 04:57:20;;;;;;;11.70;9.50;;;;;;;-141.28;100.00;48779.97;5106511;28;20204;-77
2022/09/02 04:59:47;;;;;;;12.00;9.43;;;;;;;-141.28;100.00;48789.78;5092412;28;20230;-76
2022/09/02 05:02:15;;;;;;;12.03;10.03;;;;;;;-141.28;100.00;48776.03;5074579;28;20290;-75
2022/09/02 05:04:42;;;;;;;13.00;10.00;;;;;;;-141.28;100.00;48774.09;5092357;28;20658;-76
2022/09/02 05:07:11;;;;;;;13.67;9.90;;;;;;;-141.28;100.00;48791.75;5078729;28;20548;-74
2022/09/02 05:09:38;;;;;;;12.37;9.33;;;;;;;-141.28;100.00;48772.13;5092166;28;20198;-75
2022/09/02 05:12:06;;;;;;;11.20;9.97;;;;;;;-141.28;100.00;48779.97;5092435;28;20195;-75
2022/09/02 05:14:33;;;;;;;13.47;10.13;;;;;;;-141.28;100.00;48776.03;5079558;28;20196;-75
2022/09/02 05:17:00;;;;;;;14.60;10.07;;;;;;;-141.28;100.00;48736.81;5105528;28;20199;-74
2022/09/02 05:19:29;;;;;;;13.77;9.97;;;;;;;-141.28;100.00;48779.97;5091255;28;20566;-77
2022/09/02 05:21:58;;;;;;;12.23;9.63;;;;;;;-141.28;100.00;48768.19;5082433;28;20620;-74
2022/09/02 05:24:27;;;;;;;11.40;10.30;;;;;;;-141.28;100.00;48776.03;5091805;28;20550;-76
2022/09/02 05:26:54;;;;;;;15.30;10.00;;;;;;;-141.28;100.00;48770.16;5073655;28;20577;-75
2022/09/02 05:29:22;;;;;;;16.83;9.97;;;;;;;-141.28;100.00;48760.34;5097977;28;20199;-75
2022/09/02 05:31:50;;;;;;;13.17;10.47;;;;;;;-141.28;100.00;48752.50;5091704;28;20203;-75
2022/09/02 05:34:18;;;;;;;12.73;9.37;;;;;;;-141.28;100.00;48756.44;5081936;28;20218;-77
2022/09/02 05:36:45;;;;;;;14.33;9.77;;;;;;;-141.28;100.00;48807.44;5078707;28;20656;-74
2022/09/02 05:39:13;;;;;;;11.23;10.00;;;;;;;-141.28;100.00;48752.50;5078893;28;20234;-76
2022/09/02 05:41:41;;;;;;;15.70;10.17;;;;;;;-141.28;100.00;48756.44;5072532;28;20222;-75
2022/09/02 05:44:08;;;;;;;13.30;10.33;;;;;;;-141.28;100.00;48705.41;5078233;28;20200;-76
2022/09/02 05:46:37;;;;;;;12.13;10.50;;;;;;;-141.28;100.00;48723.06;5081477;28;20200;-75
2022/09/02 05:49:07;;;;;;;13.57;11.23;;;;;;;-141.28;100.00;48711.31;5072197;28;20222;-74
2022/09/02 05:51:40;;;;;;;11.50;9.90;;;;;;;-141.28;100.00;48709.34;5071872;28;20212;-74
2022/09/02 05:54:09;;;;;;;14.33;10.33;;;;;;;-141.28;100.00;48705.41;5091766;28;20199;-76
2022/09/02 05:56:38;;;;;;;11.87;10.30;;;;;;;-141.28;100.00;48713.25;5090802;28;20603;-76
2022/09/02 05:59:09;;;;;;;11.43;10.07;;;;;;;-141.28;100.00;48736.81;5071617;28;20695;-76
2022/09/02 06:01:36;;;;;;;11.07;9.57;;;;;;;-141.28;100.00;48740.72;5087206;28;20654;-76
2022/09/02 06:04:04;;;;;;;12.10;10.60;;;;;;;-141.28;100.00;48754.47;5082554;28;20200;-76
2022/09/02 06:06:32;;;;;;;13.90;12.40;;;;;;;-141.28;100.00;48779.97;5085416;28;20199;-76
2022/09/02 06:09:03;;;;;;;16.17;12.70;;;;;;;-141.28;100.00;48815.28;5081463;28;20195;-77
2022/09/02 06:11:30;;;;;;;13.57;11.17;;;;;;;-141.28;100.00;48860.41;5092692;28;20206;-76
2022/09/02 06:13:58;;;;;;;10.77;9.77;;;;;;;-141.28;100.00;48909.47;5074018;28;20227;-76
2022/09/02 06:16:26;;;;;;;16.87;10.70;;;;;;;-141.28;100.00;48976.16;5092318;28;20199;-76
2022/09/02 06:18:54;;;;;;;18.53;9.83;;;;;;;-141.28;100.00;48989.91;5090165;28;20205;-75
2022/09/02 06:21:22;;;;;;;12.20;10.13;;;;;;;-141.28;100.00;49003.63;5074592;28;20327;-76
2022/09/02 06:23:49;;;;;;;14.40;9.83;;;;;;;-141.28;100.00;49054.66;5071315;28;20200;-76
2022/09/02 06:26:20;;;;;;;13.00;10.27;;;;;;;-141.28;100.00;49054.66;5098199;28;20196;-76
2022/09/02 06:28:47;;;;;;;11.13;9.93;;;;;;;-141.28;100.00;49027.19;5071660;28;20188;-74
2022/09/02 06:31:16;;;;;;;11.77;10.13;;;;;;;-141.28;100.00;49011.47;5073360;28;20204;-75
2022/09/02 06:33:47;;;;;;;12.37;10.30;;;;;;;-141.28;100.00;48991.84;5085412;28;20194;-73
2022/09/02 06:36:16;;;;;;;12.57;10.20;;;;;;;-141.28;100.00;48987.94;5087916;28;20199;-76
2022/09/02 06:38:48;;;;;;;12.10;10.90;;;;;;;-141.28;100.00;48952.63;5075172;28;20192;-76
2022/09/02 06:41:16;;;;;;;13.47;11.27;;;;;;;-141.28;100.00;48999.72;5095324;28;20231;-76
2022/09/02 06:43:43;;;;;;;14.47;10.47;;;;;;;-141.28;100.00;49001.66;5110131;28;20198;-75
2022/09/02 06:46:17;;;;;;;13.33;10.83;;;;;;;-141.28;100.00;49054.66;5106035;28;20229;-75
2022/09/02 06:48:47;;;;;;;12.67;11.30;;;;;;;-141.28;100.00;49068.38;5095138;28;20231;-75
2022/09/02 06:51:18;;;;;;;13.97;10.90;;;;;;;-141.28;100.00;49082.13;5099813;28;20203;-75
2022/09/02 06:53:47;;;;;;;13.20;11.00;;;;;;;-141.28;100.00;49054.66;5102459;28;20199;-74
2022/09/02 06:56:15;;;;;;;14.30;10.70;;;;;;;-141.28;100.00;49089.97;5101013;28;20195;-75
2022/09/02 06:58:43;;;;;;;14.47;11.03;;;;;;;-141.28;100.00;49086.03;5106844;28;20229;-76
2022/09/02 07:01:12;;;;;;;15.30;10.77;;;;;;;-141.28;100.00;49082.13;5081201;28;20596;-75
2022/09/02 07:06:26;;;;;;;10.83;9.73;;;;;;;-141.28;100.00;49152.75;5095315;28;20583;-76
2022/09/02 07:08:53;;;;;;;11.53;9.57;;;;;;;-141.28;100.00;49188.06;5081809;28;20196;-76
2022/09/02 07:11:23;;;;;;;11.87;10.40;;;;;;;-141.28;100.00;49184.13;5095691;28;20559;-75
2022/09/02 07:13:51;;;;;;;13.57;9.90;;;;;;;-141.28;100.00;49168.44;5076214;28;20200;-75
2022/09/02 07:16:27;;;;;;;11.33;8.67;;;;;;;-141.28;100.00;49215.53;5077804;28;20196;-75
2022/09/02 07:18:55;;;;;;;15.40;10.30;;;;;;;-141.28;100.00;49244.97;5068703;28;20207;-75
2022/09/02 07:21:22;;;;;;;14.30;10.23;;;;;;;-141.28;100.00;49195.91;5076642;28;20227;-76
2022/09/02 07:23:51;;;;;;;14.20;10.87;;;;;;;-141.28;100.00;49164.53;5075152;28;20200;-75
2022/09/02 07:26:18;;;;;;;14.93;11.33;;;;;;;-141.28;100.00;49168.44;5075581;28;20330;-74
2022/09/02 07:28:46;;;;;;;12.60;10.73;;;;;;;-141.28;100.00;49172.38;5075028;28;20651;-75
2022/09/02 07:31:14;;;;;;;12.37;10.43;;;;;;;-141.28;100.00;49195.91;5088657;28;20296;-77
2022/09/02 07:33:43;;;;;;;11.63;10.03;;;;;;;-141.28;100.00;49219.47;5079589;28;20196;-75
2022/09/02 07:36:12;;;;;;;16.00;9.50;;;;;;;-141.28;100.00;49248.88;5108790;28;20205;-75
2022/09/02 07:38:40;;;;;;;13.30;9.27;;;;;;;-141.28;100.00;49311.69;5114230;28;20548;-76
2022/09/02 07:41:12;;;;;;;11.53;9.50;;;;;;;-141.28;100.00;49372.50;5113442;28;20219;-75
2022/09/02 07:43:41;;;;;;;11.00;9.43;;;;;;;-141.28;100.00;49427.44;5113266;28;20234;-75
2022/09/02 07:46:08;;;;;;;9.13;7.50;;;;;;;-141.28;100.00;49423.53;5110317;28;20196;-77
2022/09/02 07:48:36;;;;;;;10.53;7.13;;;;;;;-141.28;100.00;49505.94;5104007;28;20671;-75
2022/09/02 07:51:04;;;;;;;7.60;5.83;;;;;;;-141.28;100.00;49607.97;5095888;28;20196;-75
2022/09/02 07:53:32;;;;;;;7.10;5.90;;;;;;;-141.28;100.00;49713.94;5093496;28;20316;-74
2022/09/02 07:56:00;;;;;;;10.00;6.53;;;;;;;-141.28;100.00;49725.72;5110732;28;20194;-76
2022/09/02 07:58:30;;;;;;;8.30;7.20;;;;;;;-141.28;100.00;49861.13;5114023;28;20203;-76
2022/09/02 08:00:57;;;;;;;12.67;6.70;;;;;;;-141.28;100.00;49910.19;5113283;28;20229;-75
2022/09/02 08:03:25;;;;;;;12.00;8.30;;;;;;;-141.28;100.00;49933.75;5101370;28;20272;-76
2022/09/02 08:05:56;;;;;;;9.73;8.63;;;;;;;-141.28;100.00;49984.78;5112226;28;20199;-75
2022/09/02 08:08:25;;;;;;;11.53;8.80;;;;;;;-141.28;100.00;50027.97;5087052;28;20607;-75
2022/09/02 08:10:53;;;;;;;9.40;8.40;;;;;;;-141.28;100.00;50055.44;5080670;28;20257;-75
2022/09/02 08:13:23;;;;;;;9.00;8.10;;;;;;;-141.28;100.00;49988.69;5092209;28;20576;-76
2022/09/02 08:15:53;;;;;;;11.23;8.40;;;;;;;-141.28;100.00;49971.03;5089615;28;20198;-76
2022/09/02 08:18:20;;;;;;;10.00;8.70;;;;;;;-141.28;100.00;49892.53;5097750;28;20202;-75
2022/09/02 08:20:48;;;;;;;8.97;8.00;;;;;;;-141.28;100.00;49882.72;5101604;28;20618;-75
2022/09/02 08:23:15;;;;;;;8.10;7.30;;;;;;;-141.28;100.00;49861.13;5097344;28;20257;-75
2022/09/02 08:25:42;;;;;;;10.03;7.87;;;;;;;-141.28;100.00;49859.19;5083904;28;20192;-78
2022/09/02 08:28:09;;;;;;;12.00;8.47;;;;;;;-141.28;100.00;49870.94;5073385;28;20208;-76
2022/09/02 08:30:36;;;;;;;9.60;8.03;;;;;;;-141.28;100.00;49863.09;5073462;28;20200;-75
2022/09/02 08:33:05;;;;;;;10.40;7.93;;;;;;;-141.28;100.00;49869.00;5057836;28;20203;-77
2022/09/02 08:35:33;;;;;;;8.83;7.93;;;;;;;-141.28;100.00;49886.66;5092263;28;20203;-76
2022/09/02 08:38:01;;;;;;;8.83;7.53;;;;;;;-141.28;100.00;49890.56;5095670;28;20199;-76
2022/09/02 08:40:35;;;;;;;10.80;8.13;;;;;;;-141.28;100.00;49973.00;5102539;28;20226;-74
2022/09/02 08:43:03;;;;;;;10.43;7.47;;;;;;;-141.28;100.00;49988.69;5107885;28;20207;-76
2022/09/02 08:45:36;;;;;;;9.37;7.60;;;;;;;-141.28;100.00;50016.19;5092466;28;20205;-76
2022/09/02 08:48:11;;;;;;;8.33;7.53;;;;;;;-141.28;100.00;50075.06;5095620;28;20208;-76
2022/09/02 08:50:44;;;;;;;10.20;7.63;;;;;;;-141.28;100.00;50096.66;5104139;28;20613;-76
2022/09/02 08:53:20;;;;;;;12.43;7.97;;;;;;;-141.28;100.00;50188.91;5089590;28;20654;-75
2022/09/02 08:55:53;;;;;;;11.97;8.43;;;;;;;-141.28;100.00;50239.94;5081488;28;20203;-76
2022/09/02 08:58:23;;;;;;;11.83;8.40;;;;;;;-141.28;100.00;50200.66;5092922;28;20203;-74
2022/09/02 09:00:59;;;;;;;11.07;9.07;;;;;;;-141.28;100.00;50290.97;5097285;28;20227;-76
2022/09/02 09:03:34;;;;;;;18.43;9.13;;;;;;;-141.28;100.00;50342.00;5100274;28;20257;-74
2022/09/02 09:06:09;;;;;;;15.97;8.67;;;;;;;-141.28;100.00;50373.38;5085839;28;20204;-76
2022/09/02 09:08:47;;;;;;;10.03;8.20;;;;;;;-141.28;100.00;50363.56;5087039;28;20256;-75
2022/09/02 09:11:23;;;;;;;12.97;8.33;;;;;;;-141.28;100.00;50314.50;5092372;28;20207;-75
2022/09/02 09:14:12;;;;;;;14.90;8.83;;;;;;;-141.28;100.00;50432.28;5085877;28;20255;-76
2022/09/02 09:16:43;;;;;;;9.17;8.10;;;;;;;-141.28;100.00;50530.41;5093385;28;20214;-74
2022/09/02 09:19:16;;;;;;;10.80;8.33;;;;;;;-141.28;100.00;50579.50;5081833;28;20196;-77
2022/09/02 09:21:44;;;;;;;14.03;8.00;;;;;;;-141.28;100.00;50522.56;5092701;28;20226;-75
2022/09/02 09:24:22;;;;;;;10.17;8.33;;;;;;;-141.28;100.00;50579.50;5092829;28;20229;-76
2022/09/02 09:26:49;;;;;;;12.60;9.10;;;;;;;-141.28;100.00;50626.59;5092659;28;20290;-75
2022/09/02 09:29:16;;;;;;;11.13;8.60;;;;;;;-141.28;100.00;50569.69;5092016;28;20216;-74
2022/09/02 09:31:47;;;;;;;12.57;9.90;;;;;;;-141.28;100.00;50695.31;5072327;28;20647;-74
2022/09/02 09:34:20;;;;;;;11.10;9.53;;;;;;;-141.28;100.00;50797.38;5075434;28;20207;-76
2022/09/02 09:36:54;;;;;;;11.17;8.87;;;;;;;-141.28;100.00;50820.94;5105236;28;20222;-74
2022/09/02 09:39:25;;;;;;;14.83;9.67;;;;;;;-141.28;100.00;50885.72;5105548;28;20225;-75
2022/09/02 09:41:53;;;;;;;14.90;10.37;;;;;;;-141.28;100.00;50923.03;5110490;28;20771;-75
2022/09/02 09:44:42;;;;;;;12.30;9.63;;;;;;;-141.28;100.00;51091.84;5092129;28;20199;-76
2022/09/02 09:47:18;;;;;;;17.33;10.43;;;;;;;-141.28;100.00;51103.63;5104938;28;20199;-75
2022/09/02 09:49:47;;;;;;;14.87;9.63;;;;;;;-141.28;100.00;51097.75;5091765;28;20195;-78
2022/09/02 09:52:26;;;;;;;12.47;8.70;;;;;;;-141.28;100.00;51154.69;5088717;28;20210;-76
2022/09/02 09:55:11;;;;;;;15.67;9.30;;;;;;;-141.28;100.00;51262.66;5103461;28;20203;-75
2022/09/02 09:57:39;;;;;;;12.50;8.77;;;;;;;-141.28;100.00;51233.22;5072084;28;20227;-76
2022/09/02 10:00:20;;;;;;;11.17;9.03;;;;;;;-141.28;100.00;51284.25;5086439;28;20235;-75
2022/09/02 10:02:49;;;;;;;13.60;9.67;;;;;;;-141.28;100.00;51276.41;5091527;28;20256;-75
2022/09/02 10:05:28;;;;;;;12.87;9.77;;;;;;;-141.28;100.00;51260.69;5091314;28;20560;-76
2022/09/02 10:07:58;;;;;;;11.13;9.37;;;;;;;-141.28;100.00;51268.56;5093804;28;20565;-76
2022/09/02 10:10:29;;;;;;;12.97;10.57;;;;;;;-141.28;100.00;51264.63;5088675;28;20195;-76
2022/09/02 10:12:59;;;;;;;16.73;10.43;;;;;;;-141.28;100.00;51229.28;5091397;28;20214;-76
2022/09/02 10:15:44;;;;;;;15.67;10.50;;;;;;;-141.28;100.00;51288.19;5077908;28;20709;-75
2022/09/02 10:18:23;;;;;;;18.10;11.07;;;;;;;-141.28;100.00;51243.03;5091033;28;20257;-74
2022/09/02 10:21:06;;;;;;;11.80;9.73;;;;;;;-141.28;100.00;51235.19;5079665;28;20255;-75
2022/09/02 10:23:52;;;;;;;12.93;9.90;;;;;;;-141.28;100.00;51199.84;5071340;28;20197;-77
2022/09/02 10:26:30;;;;;;;11.40;9.90;;;;;;;-141.28;100.00;51209.66;5071904;28;20196;-76
2022/09/02 10:29:21;;;;;;;9.90;8.70;;;;;;;-141.28;100.00;51245.00;5071085;28;20200;-74
2022/09/02 10:31:57;;;;;;;15.57;10.33;;;;;;;-141.28;100.00;51352.97;5086366;28;20199;-74
2022/09/02 10:34:36;;;;;;;10.93;8.97;;;;;;;-141.28;100.00;51451.16;5082777;28;20573;-75
2022/09/02 10:37:20;;;;;;;10.07;9.07;;;;;;;-141.28;100.00;51582.69;5069586;28;20202;-77
2022/09/02 10:40:09;;;;;;;13.97;8.83;;;;;;;-141.28;100.00;51284.25;5092198;28;20216;-75
2022/09/02 10:42:48;;;;;;;9.93;8.17;;;;;;;-141.28;100.00;50911.25;5104368;28;20221;-75
2022/09/02 10:45:23;;;;;;;12.90;9.73;;;;;;;-141.28;100.00;50836.66;5110939;28;20201;-74
2022/09/02 10:48:01;;;;;;;12.57;9.20;;;;;;;-141.28;100.00;50832.72;5110255;28;20645;-75
2022/09/02 10:50:39;;;;;;;11.67;9.27;;;;;;;-141.28;100.00;50809.16;5108515;28;20203;-76
2022/09/02 10:53:21;;;;;;;11.37;10.03;;;;;;;-141.28;100.00;50828.78;5091099;28;20646;-76
2022/09/02 10:55:58;;;;;;;11.87;9.20;;;;;;;-141.28;100.00;50801.31;5100855;28;20654;-75
2022/09/02 10:58:39;;;;;;;12.30;8.93;;;;;;;-141.28;100.00;50930.88;5092417;28;20203;-77
2022/09/02 11:01:10;;;;;;;12.57;9.73;;;;;;;-141.28;100.00;51068.28;5076594;28;20385;-76
2022/09/02 11:03:47;;;;;;;12.37;9.53;;;;;;;-141.28;100.00;51237.13;5078643;28;20546;-74
2022/09/02 11:06:21;;;;;;;10.43;9.10;;;;;;;-141.28;100.00;51292.13;5079736;28;20203;-76
2022/09/02 11:08:53;;;;;;;11.70;9.47;;;;;;;-141.28;100.00;51547.34;5091186;28;20206;-76
2022/09/02 11:11:24;;;;;;;13.80;11.40;;;;;;;-141.28;100.00;51549.31;5072189;28;20196;-75
2022/09/02 11:14:02;;;;;;;13.67;11.40;;;;;;;-141.28;100.00;51641.59;5071366;28;20208;-76